Time;durP1;ratioP1;P1;durP2;ratioP2;P2;SDS_P1;SDS_P2;PMS_P1;PMS_P2;Temp;Humidity;BMP_temperature;BMP_pressure;BME280_temperature;BME280_humidity;BME280_pressure;Samples;Min_cycle;Max_cycle;Signal;HPM_P1;HPM_P2
2021/05/10 00:02:05;;;;;;;0.93;0.60;;;20.40;99.90;;;;;;5034503;28;20209;-90
2021/05/10 00:04:36;;;;;;;1.50;0.60;;;19.70;99.90;;;;;;5036496;28;20259;-90
2021/05/10 00:07:08;;;;;;;1.10;0.80;;;19.50;99.90;;;;;;5019836;28;20216;-89
2021/05/10 00:09:39;;;;;;;1.37;1.00;;;19.30;99.90;;;;;;5034868;28;20205;-90
2021/05/10 00:12:12;;;;;;;2.90;1.03;;;19.30;99.90;;;;;;5034463;28;20209;-89
2021/05/10 00:14:44;;;;;;;1.87;0.70;;;19.30;99.90;;;;;;5037802;28;20237;-88
2021/05/10 00:17:15;;;;;;;1.77;0.70;;;19.50;99.90;;;;;;5035274;28;20251;-89
2021/05/10 00:19:46;;;;;;;1.40;0.70;;;19.60;99.90;;;;;;5037357;28;20212;-89
2021/05/10 00:22:16;;;;;;;1.80;0.63;;;19.50;99.90;;;;;;5034272;28;20259;-89
2021/05/10 00:24:48;;;;;;;2.60;0.67;;;19.60;99.90;;;;;;5017317;28;20636;-89
2021/05/10 00:27:21;;;;;;;0.97;0.80;;;19.40;99.90;;;;;;5034542;28;20256;-89
2021/05/10 00:29:51;;;;;;;2.30;0.70;;;19.40;99.90;;;;;;5034371;28;20209;-89
2021/05/10 00:32:21;;;;;;;0.97;0.60;;;19.50;99.90;;;;;;5034565;28;20299;-89
2021/05/10 00:35:00;;;;;;;1.60;0.60;;;19.50;99.90;;;;;;5035156;28;20339;-89
2021/05/10 00:37:31;;;;;;;0.80;0.47;;;19.20;99.90;;;;;;5033840;28;20204;-88
2021/05/10 00:40:01;;;;;;;1.20;0.80;;;19.10;99.90;;;;;;5033057;28;20204;-89
2021/05/10 00:42:34;;;;;;;1.33;0.83;;;19.20;99.90;;;;;;5033542;28;20205;-88
2021/05/10 00:45:06;;;;;;;1.10;0.80;;;19.20;99.90;;;;;;5034125;28;20205;-88
2021/05/10 00:47:38;;;;;;;1.03;0.70;;;19.20;99.90;;;;;;5033399;28;20209;-88
2021/05/10 00:50:11;;;;;;;0.63;0.60;;;19.20;99.90;;;;;;5033488;28;20220;-89
2021/05/10 00:52:45;;;;;;;1.27;0.60;;;18.90;99.90;;;;;;5034290;28;20275;-88
2021/05/10 00:55:16;;;;;;;2.70;0.50;;;18.90;99.90;;;;;;5034119;28;20255;-88
2021/05/10 00:57:53;;;;;;;0.53;0.40;;;18.80;99.90;;;;;;5034077;28;20263;-88
2021/05/10 01:00:24;;;;;;;1.40;0.60;;;18.70;99.90;;;;;;5032667;28;20204;-88
2021/05/10 01:02:55;;;;;;;0.77;0.57;;;18.80;99.90;;;;;;5036706;28;20284;-89
2021/05/10 01:05:27;;;;;;;0.77;0.60;;;19.30;99.90;;;;;;5040002;28;20209;-87
2021/05/10 01:07:58;;;;;;;1.30;0.70;;;20.10;99.90;;;;;;5038043;28;20258;-89
2021/05/10 01:10:28;;;;;;;1.43;0.60;;;20.60;99.90;;;;;;5037091;28;20732;-88
2021/05/10 01:13:01;;;;;;;0.80;0.57;;;20.80;99.90;;;;;;5040052;28;20208;-88
2021/05/10 01:15:32;;;;;;;0.70;0.40;;;21.20;99.90;;;;;;5038710;28;20267;-88
2021/05/10 01:18:03;;;;;;;0.30;0.30;;;21.70;99.90;;;;;;5040310;28;20691;-89
2021/05/10 01:20:36;;;;;;;1.17;0.50;;;21.70;99.90;;;;;;5038334;28;20236;-88
2021/05/10 01:23:08;;;;;;;0.53;0.43;;;21.30;99.90;;;;;;5045404;28;20204;-88
2021/05/10 01:25:39;;;;;;;0.63;0.60;;;21.50;99.90;;;;;;5054891;28;20262;-89
2021/05/10 01:28:11;;;;;;;1.50;0.40;;;21.70;99.90;;;;;;5053281;28;20213;-89
2021/05/10 01:30:44;;;;;;;0.73;0.40;;;21.80;99.90;;;;;;5043038;28;20248;-90
2021/05/10 01:33:15;;;;;;;0.47;0.27;;;21.70;99.90;;;;;;5038965;28;20205;-91
2021/05/10 01:35:50;;;;;;;0.30;0.30;;;20.80;99.90;;;;;;5040387;28;20204;-91
2021/05/10 01:38:23;;;;;;;0.77;0.40;;;20.00;99.90;;;;;;5041137;28;20737;-91
2021/05/10 01:40:53;;;;;;;2.17;0.70;;;19.10;99.90;;;;;;5041033;28;20231;-91
2021/05/10 01:43:24;;;;;;;1.40;0.47;;;18.40;99.90;;;;;;5038018;28;20208;-90
2021/05/10 01:45:55;;;;;;;0.80;0.40;;;18.10;99.90;;;;;;5038381;28;20304;-91
2021/05/10 01:48:26;;;;;;;0.80;0.53;;;17.70;99.90;;;;;;5022909;28;20213;-91
2021/05/10 01:50:57;;;;;;;0.77;0.60;;;17.40;99.90;;;;;;5037798;28;20232;-89
2021/05/10 01:53:30;;;;;;;0.70;0.50;;;17.30;99.90;;;;;;5037497;28;20232;-89
2021/05/10 01:56:01;;;;;;;1.13;0.60;;;17.10;99.90;;;;;;5037467;28;20300;-90
2021/05/10 01:58:30;;;;;;;0.83;0.30;;;17.40;99.90;;;;;;5037664;28;20205;-90
2021/05/10 02:01:01;;;;;;;1.57;0.40;;;17.20;99.90;;;;;;5036940;28;20201;-90
2021/05/10 02:03:32;;;;;;;1.43;0.50;;;16.80;99.90;;;;;;5037667;28;20259;-90
2021/05/10 02:06:03;;;;;;;0.90;0.40;;;16.60;99.90;;;;;;5037551;28;20205;-91
2021/05/10 02:08:36;;;;;;;0.83;0.40;;;16.40;99.90;;;;;;5038139;28;20209;-91
2021/05/10 02:11:08;;;;;;;0.83;0.50;;;16.10;99.90;;;;;;5037166;28;20575;-91
2021/05/10 02:13:39;;;;;;;2.13;0.70;;;15.90;99.90;;;;;;5020696;28;20256;-91
2021/05/10 02:16:09;;;;;;;1.47;0.50;;;15.70;99.90;;;;;;5038341;28;20263;-91
2021/05/10 02:18:40;;;;;;;1.23;0.50;;;15.60;99.90;;;;;;5048130;28;20192;-92
2021/05/10 02:21:12;;;;;;;1.33;0.70;;;15.50;99.90;;;;;;5057061;28;20205;-90
2021/05/10 02:23:44;;;;;;;0.63;0.50;;;15.40;99.90;;;;;;5058295;28;20200;-91
2021/05/10 02:26:15;;;;;;;1.60;0.53;;;15.30;99.90;;;;;;5058094;28;20201;-91
2021/05/10 02:28:45;;;;;;;2.03;0.60;;;15.10;99.90;;;;;;5058288;28;20221;-90
2021/05/10 02:31:16;;;;;;;1.17;0.77;;;15.00;99.90;;;;;;5057008;28;20201;-91
2021/05/10 02:33:46;;;;;;;1.63;0.50;;;14.90;99.90;;;;;;5052779;28;20728;-91
2021/05/10 02:36:16;;;;;;;1.50;0.40;;;15.00;99.90;;;;;;5038604;28;20213;-91
2021/05/10 02:38:49;;;;;;;2.97;0.67;;;14.90;99.90;;;;;;5038507;28;20259;-91
2021/05/10 02:41:21;;;;;;;0.70;0.50;;;14.80;99.90;;;;;;5038270;28;20649;-90
2021/05/10 02:43:52;;;;;;;2.57;0.50;;;14.70;99.90;;;;;;5037964;28;20209;-90
2021/05/10 02:46:22;;;;;;;0.83;0.60;;;14.60;99.90;;;;;;5036539;28;20209;-91
2021/05/10 02:48:54;;;;;;;0.60;0.50;;;14.50;99.90;;;;;;5020757;28;20662;-90
2021/05/10 02:51:24;;;;;;;0.80;0.60;;;14.40;99.90;;;;;;5036547;28;20197;-90
2021/05/10 02:53:57;;;;;;;1.00;0.73;;;14.30;99.90;;;;;;5020180;28;20233;-90
2021/05/10 02:56:28;;;;;;;1.80;0.60;;;14.20;99.90;;;;;;5036832;28;20201;-91
2021/05/10 02:59:00;;;;;;;0.53;0.50;;;14.10;99.90;;;;;;5037164;28;20216;-91
2021/05/10 03:01:31;;;;;;;0.80;0.70;;;14.10;99.90;;;;;;5036513;28;20215;-91
2021/05/10 03:04:01;;;;;;;0.73;0.70;;;14.00;99.90;;;;;;5037628;28;20262;-90
2021/05/10 03:06:33;;;;;;;0.80;0.60;;;13.90;99.90;;;;;;5019362;28;20209;-90
2021/05/10 03:09:05;;;;;;;1.13;0.63;;;13.80;99.90;;;;;;5019672;28;20244;-91
2021/05/10 03:11:36;;;;;;;0.63;0.60;;;13.80;99.90;;;;;;5036097;28;20271;-91
2021/05/10 03:14:07;;;;;;;1.20;0.63;;;13.70;99.90;;;;;;5037294;28;20235;-91
2021/05/10 03:16:38;;;;;;;1.80;0.70;;;13.70;99.90;;;;;;5036953;28;20568;-91
2021/05/10 03:19:10;;;;;;;2.47;0.80;;;13.60;99.90;;;;;;5038055;28;20239;-91
2021/05/10 03:21:41;;;;;;;0.73;0.60;;;13.50;99.90;;;;;;5036251;28;20227;-90
2021/05/10 03:24:15;;;;;;;1.03;0.60;;;13.30;99.90;;;;;;5036138;28;20318;-90
2021/05/10 03:26:45;;;;;;;1.43;0.60;;;13.30;99.90;;;;;;5037108;28;20205;-90
2021/05/10 03:29:16;;;;;;;1.53;0.70;;;13.30;99.90;;;;;;5038391;28;20213;-91
2021/05/10 03:31:47;;;;;;;0.80;0.80;;;13.20;99.90;;;;;;5035517;28;20256;-89
2021/05/10 03:34:17;;;;;;;0.97;0.60;;;13.20;99.90;;;;;;5037538;28;20720;-91
2021/05/10 03:36:48;;;;;;;2.00;0.80;;;13.10;99.90;;;;;;5037046;28;20676;-91
2021/05/10 03:39:21;;;;;;;1.53;0.70;;;12.90;99.90;;;;;;5036851;28;20236;-90
2021/05/10 03:41:51;;;;;;;1.87;0.80;;;12.90;99.90;;;;;;5037699;28;20215;-90
2021/05/10 03:44:22;;;;;;;1.17;0.80;;;12.70;99.90;;;;;;5047557;28;20217;-90
2021/05/10 03:46:53;;;;;;;2.07;0.97;;;12.60;99.90;;;;;;5050961;28;20209;-90
2021/05/10 03:49:24;;;;;;;1.70;0.90;;;12.50;99.90;;;;;;5051036;28;20221;-90
2021/05/10 03:51:55;;;;;;;1.70;0.80;;;12.40;99.90;;;;;;5038670;28;20204;-90
2021/05/10 03:54:27;;;;;;;1.00;0.80;;;12.40;99.90;;;;;;5036689;28;20228;-90
2021/05/10 03:56:59;;;;;;;4.07;1.00;;;12.30;99.90;;;;;;5037115;28;20704;-90
2021/05/10 03:59:29;;;;;;;1.20;0.80;;;12.20;99.90;;;;;;5037228;28;20278;-90
2021/05/10 04:02:02;;;;;;;1.10;1.00;;;12.20;99.90;;;;;;5036725;28;20263;-90
2021/05/10 04:04:38;;;;;;;2.30;0.90;;;12.10;99.90;;;;;;5036056;28;20206;-90
2021/05/10 04:10:34;;;;;;;0.87;0.70;;;12.10;99.90;;;;;;5031643;28;20288;-93
2021/05/10 04:15:53;;;;;;;1.13;1.03;;;12.00;99.90;;;;;;5040835;28;20232;-90
2021/05/10 04:18:23;;;;;;;2.00;1.10;;;12.00;99.90;;;;;;5035444;28;20267;-90
2021/05/10 04:20:54;;;;;;;2.17;1.20;;;11.90;99.90;;;;;;5034037;28;20209;-91
2021/05/10 04:23:27;;;;;;;1.10;1.00;;;11.90;99.90;;;;;;5017824;28;20252;-90
2021/05/10 04:26:00;;;;;;;1.53;1.10;;;11.90;99.90;;;;;;5035357;28;20227;-90
2021/05/10 04:28:30;;;;;;;1.17;1.00;;;11.90;99.90;;;;;;5035219;28;20271;-90
2021/05/10 04:31:01;;;;;;;1.73;1.20;;;11.90;99.90;;;;;;5034409;28;20280;-91
2021/05/10 04:33:33;;;;;;;1.30;1.20;;;11.70;99.90;;;;;;5035678;28;20216;-91
2021/05/10 04:36:04;;;;;;;1.53;1.00;;;11.60;99.90;;;;;;5034519;28;20626;-90
2021/05/10 04:38:33;;;;;;;1.53;1.37;;;11.50;99.90;;;;;;5035730;28;20209;-90
2021/05/10 04:41:04;;;;;;;3.57;1.30;;;11.60;99.90;;;;;;5034843;28;20209;-90
2021/05/10 04:43:34;;;;;;;4.67;1.20;;;11.60;99.90;;;;;;5035184;28;20205;-90
2021/05/10 04:46:04;;;;;;;2.50;1.40;;;11.50;99.90;;;;;;5036086;28;20657;-90
2021/05/10 04:48:38;;;;;;;2.30;1.23;;;11.30;99.90;;;;;;5037853;28;20201;-90
2021/05/10 04:51:09;;;;;;;1.97;1.67;;;11.30;99.90;;;;;;5034379;28;20265;-90
2021/05/10 04:53:39;;;;;;;2.77;1.30;;;11.30;99.90;;;;;;5037276;28;20638;-90
2021/05/10 04:56:12;;;;;;;1.97;1.33;;;11.20;99.90;;;;;;5055168;28;20298;-90
2021/05/10 04:58:43;;;;;;;2.50;1.20;;;11.20;99.90;;;;;;5048242;28;20255;-90
2021/05/10 05:01:13;;;;;;;3.30;1.40;;;11.20;99.90;;;;;;5033749;28;20227;-90
2021/05/10 05:03:43;;;;;;;1.70;1.40;;;11.10;99.90;;;;;;5017566;28;20209;-90
2021/05/10 05:06:15;;;;;;;2.63;1.60;;;11.00;99.90;;;;;;5034514;28;20569;-90
2021/05/10 05:08:45;;;;;;;1.80;1.50;;;11.00;99.90;;;;;;5034920;28;20208;-90
2021/05/10 05:11:18;;;;;;;2.17;1.50;;;10.90;99.90;;;;;;5034041;28;20197;-89
2021/05/10 05:13:48;;;;;;;4.10;1.50;;;10.80;99.90;;;;;;5002363;28;20213;-90
2021/05/10 05:16:18;;;;;;;2.07;1.40;;;10.80;99.90;;;;;;5035232;28;20209;-90
2021/05/10 05:18:48;;;;;;;1.80;1.70;;;10.80;99.90;;;;;;5035254;28;20205;-90
2021/05/10 05:21:18;;;;;;;2.07;1.50;;;10.80;99.90;;;;;;5035421;28;20217;-91
2021/05/10 05:23:48;;;;;;;2.83;1.80;;;10.70;99.90;;;;;;5036124;28;20215;-90
2021/05/10 05:26:19;;;;;;;3.17;1.77;;;10.70;99.90;;;;;;5034880;28;20208;-90
2021/05/10 05:28:49;;;;;;;2.77;1.80;;;10.60;99.90;;;;;;5035807;28;20271;-90
2021/05/10 05:31:19;;;;;;;2.40;1.70;;;10.60;99.90;;;;;;5034787;28;20283;-90
2021/05/10 05:33:50;;;;;;;3.20;1.90;;;10.50;99.90;;;;;;5034547;28;20205;-90
2021/05/10 05:36:31;;;;;;;3.50;1.80;;;10.50;99.90;;;;;;5035719;28;20208;-90
2021/05/10 05:39:01;;;;;;;2.47;1.83;;;10.40;99.90;;;;;;5036114;28;20228;-89
2021/05/10 05:41:34;;;;;;;3.33;2.07;;;10.30;99.90;;;;;;5034166;28;20213;-89
2021/05/10 05:44:06;;;;;;;2.63;1.87;;;10.30;99.90;;;;;;5034856;28;20212;-89
2021/05/10 05:46:41;;;;;;;2.07;1.87;;;10.20;99.90;;;;;;5035014;28;20266;-89
2021/05/10 05:49:12;;;;;;;3.33;1.60;;;10.20;99.90;;;;;;5038271;28;20246;-89
2021/05/10 05:51:46;;;;;;;2.27;2.00;;;10.20;99.90;;;;;;5037751;28;20205;-91
2021/05/10 05:54:18;;;;;;;3.40;1.90;;;10.30;99.90;;;;;;5021064;28;20267;-90
2021/05/10 05:56:51;;;;;;;2.00;1.80;;;10.20;99.90;;;;;;5038347;28;20243;-90
2021/05/10 05:59:22;;;;;;;2.43;1.97;;;10.10;99.90;;;;;;5038656;28;20209;-89
2021/05/10 06:01:53;;;;;;;2.60;1.87;;;10.10;99.90;;;;;;5038137;28;20209;-89
2021/05/10 06:04:24;;;;;;;1.70;1.60;;;10.10;99.90;;;;;;5054643;28;20225;-90
2021/05/10 06:06:55;;;;;;;1.97;1.87;;;10.10;99.90;;;;;;5038457;28;20209;-89
2021/05/10 06:09:26;;;;;;;2.47;1.80;;;10.00;99.90;;;;;;5051633;28;20209;-90
2021/05/10 06:11:58;;;;;;;2.30;1.93;;;10.00;99.90;;;;;;5019704;28;20244;-90
2021/05/10 06:14:29;;;;;;;1.90;1.57;;;10.00;99.90;;;;;;5037749;28;20253;-90
2021/05/10 06:17:00;;;;;;;2.50;1.50;;;10.00;99.90;;;;;;5037600;28;20232;-89
2021/05/10 06:19:31;;;;;;;2.43;1.97;;;9.90;99.90;;;;;;5037419;28;20233;-90
2021/05/10 06:22:02;;;;;;;2.30;2.00;;;9.80;99.90;;;;;;5036395;28;20701;-89
2021/05/10 06:24:32;;;;;;;2.37;1.83;;;9.70;99.90;;;;;;5020271;28;20209;-89
2021/05/10 06:27:05;;;;;;;2.67;1.80;;;9.70;99.90;;;;;;5020251;28;20638;-91
2021/05/10 06:29:36;;;;;;;1.73;1.57;;;9.70;99.90;;;;;;5037801;28;20232;-90
2021/05/10 06:32:07;;;;;;;3.20;1.90;;;9.80;99.90;;;;;;5019622;28;20219;-90
2021/05/10 06:34:39;;;;;;;2.97;1.77;;;9.80;99.90;;;;;;5004174;28;20244;-89
2021/05/10 06:37:10;;;;;;;2.53;1.80;;;9.90;99.90;;;;;;5037346;28;20205;-91
2021/05/10 06:39:40;;;;;;;3.03;2.10;;;9.90;99.90;;;;;;5037276;28;20274;-89
2021/05/10 06:42:13;;;;;;;2.13;1.93;;;9.90;99.90;;;;;;5036135;28;20213;-89
2021/05/10 06:44:43;;;;;;;1.60;1.50;;;9.90;99.90;;;;;;5036734;28;20220;-89
2021/05/10 06:47:14;;;;;;;3.60;1.80;;;9.80;99.90;;;;;;5019744;28;20625;-89
2021/05/10 06:49:45;;;;;;;3.87;1.70;;;9.90;99.90;;;;;;5036768;28;20259;-90
2021/05/10 06:52:14;;;;;;;3.33;1.73;;;9.80;99.90;;;;;;5036898;28;20204;-89
2021/05/10 06:54:45;;;;;;;2.47;1.63;;;9.70;99.90;;;;;;5036851;28;20228;-89
2021/05/10 06:57:17;;;;;;;1.83;1.63;;;9.70;99.90;;;;;;5042682;28;20296;-89
2021/05/10 06:59:47;;;;;;;4.03;1.70;;;9.60;99.90;;;;;;5056165;28;20212;-90
2021/05/10 07:02:20;;;;;;;2.93;1.90;;;9.50;99.90;;;;;;5016528;28;20285;-89
2021/05/10 07:04:51;;;;;;;2.27;1.70;;;9.50;99.90;;;;;;4985532;28;20202;-89
2021/05/10 07:07:21;;;;;;;2.63;1.80;;;9.40;99.90;;;;;;5016914;28;20663;-89
2021/05/10 07:09:54;;;;;;;3.67;1.73;;;9.40;99.90;;;;;;5016982;28;20225;-91
2021/05/10 07:12:28;;;;;;;3.70;2.13;;;9.40;99.90;;;;;;5017049;28;20213;-90
2021/05/10 07:14:59;;;;;;;2.40;1.50;;;9.40;99.90;;;;;;5016691;28;20242;-90
2021/05/10 07:17:29;;;;;;;2.70;1.67;;;9.30;99.90;;;;;;5017249;28;20678;-90
2021/05/10 07:20:00;;;;;;;3.27;1.63;;;9.30;99.90;;;;;;4999275;28;20210;-91
2021/05/10 07:22:30;;;;;;;2.33;1.90;;;9.30;99.90;;;;;;5017583;28;20210;-90
2021/05/10 07:25:02;;;;;;;1.60;1.23;;;9.30;99.90;;;;;;5025027;28;20574;-89
2021/05/10 07:27:34;;;;;;;2.40;1.47;;;9.20;99.90;;;;;;5023480;28;20266;-89
2021/05/10 07:30:06;;;;;;;3.20;1.53;;;9.10;99.90;;;;;;5023501;28;20572;-90
2021/05/10 07:32:37;;;;;;;3.23;1.50;;;9.10;99.90;;;;;;5016474;28;20214;-89
2021/05/10 07:35:07;;;;;;;1.70;1.60;;;9.10;99.90;;;;;;5016559;28;20657;-89
2021/05/10 07:37:38;;;;;;;2.80;1.50;;;9.10;99.90;;;;;;5016057;28;20252;-89
2021/05/10 07:40:10;;;;;;;1.97;1.50;;;9.00;99.90;;;;;;5016126;28;20370;-89
2021/05/10 07:42:41;;;;;;;1.33;1.23;;;9.00;99.90;;;;;;5016105;28;20217;-89
2021/05/10 07:45:11;;;;;;;2.90;1.50;;;9.00;99.90;;;;;;5025347;28;20277;-89
2021/05/10 07:47:41;;;;;;;2.60;1.63;;;9.00;99.90;;;;;;5039267;28;20213;-90
2021/05/10 07:50:13;;;;;;;2.20;1.50;;;8.90;99.90;;;;;;5039617;28;20717;-89
2021/05/10 07:52:43;;;;;;;1.50;1.30;;;8.90;99.90;;;;;;5047240;28;20243;-89
2021/05/10 07:55:14;;;;;;;2.50;1.60;;;8.90;99.90;;;;;;5055596;28;20221;-89
2021/05/10 07:57:48;;;;;;;2.23;1.57;;;8.90;99.90;;;;;;5055055;28;20196;-88
2021/05/10 08:00:23;;;;;;;2.90;1.30;;;8.90;99.90;;;;;;5054692;28;20212;-89
2021/05/10 08:02:54;;;;;;;3.87;1.50;;;8.80;99.90;;;;;;5055257;28;20257;-89
2021/05/10 08:05:25;;;;;;;2.27;1.60;;;8.80;99.90;;;;;;5055025;28;20197;-89
2021/05/10 08:07:56;;;;;;;2.23;1.50;;;8.70;99.90;;;;;;5042357;28;20251;-89
2021/05/10 08:10:27;;;;;;;1.80;1.50;;;8.70;99.90;;;;;;5038677;28;20426;-89
2021/05/10 08:12:59;;;;;;;3.47;1.60;;;8.70;99.90;;;;;;5038700;28;20672;-90
2021/05/10 08:15:30;;;;;;;2.97;1.63;;;8.60;99.90;;;;;;5035568;28;20236;-89
2021/05/10 08:18:01;;;;;;;2.40;1.30;;;8.70;99.90;;;;;;5037697;28;20238;-89
2021/05/10 08:20:40;;;;;;;1.67;1.20;;;8.70;99.90;;;;;;5037574;28;20217;-89
2021/05/10 08:23:12;;;;;;;2.77;1.80;;;8.70;99.90;;;;;;5049412;28;20200;-90
2021/05/10 08:25:43;;;;;;;3.57;1.50;;;8.60;99.90;;;;;;5050321;28;20263;-90
2021/05/10 08:28:16;;;;;;;2.37;1.50;;;8.60;99.90;;;;;;5042838;28;20269;-89
2021/05/10 08:30:47;;;;;;;3.23;1.40;;;8.60;99.90;;;;;;5036086;28;20250;-89
2021/05/10 08:33:18;;;;;;;1.50;1.40;;;8.60;99.90;;;;;;5035118;28;20251;-90
2021/05/10 08:35:49;;;;;;;4.80;1.73;;;8.50;99.90;;;;;;5035989;28;20259;-89
2021/05/10 08:38:20;;;;;;;1.83;1.30;;;8.50;99.90;;;;;;5035112;28;20216;-89
2021/05/10 08:40:53;;;;;;;1.97;1.50;;;8.40;99.90;;;;;;5016890;28;20650;-89
2021/05/10 08:43:26;;;;;;;5.87;1.40;;;8.40;99.90;;;;;;5035204;28;20244;-89
2021/05/10 08:45:57;;;;;;;3.23;1.37;;;8.40;99.90;;;;;;5034469;28;20275;-89
2021/05/10 08:48:28;;;;;;;2.70;1.47;;;8.40;99.90;;;;;;5034642;28;20688;-89
2021/05/10 08:50:59;;;;;;;3.00;1.43;;;8.30;99.90;;;;;;5033852;28;20212;-89
2021/05/10 08:53:37;;;;;;;2.37;1.50;;;8.30;99.90;;;;;;5034393;28;20205;-89
2021/05/10 08:56:08;;;;;;;2.53;1.23;;;8.30;99.90;;;;;;5034785;28;20255;-89
2021/05/10 08:58:41;;;;;;;4.33;1.80;;;8.30;99.90;;;;;;5034801;28;20220;-89
2021/05/10 09:01:13;;;;;;;2.87;1.40;;;8.20;99.90;;;;;;5033841;28;20201;-89
2021/05/10 09:03:45;;;;;;;2.13;1.33;;;8.20;99.90;;;;;;5033854;28;20251;-89
2021/05/10 09:06:19;;;;;;;3.30;1.70;;;8.10;99.90;;;;;;5034185;28;20205;-89
2021/05/10 09:08:51;;;;;;;1.53;1.13;;;8.00;99.90;;;;;;5034542;28;20267;-89
2021/05/10 09:11:22;;;;;;;4.60;1.20;;;8.00;99.90;;;;;;5033327;28;20220;-89
2021/05/10 09:13:59;;;;;;;3.00;1.40;;;8.10;99.90;;;;;;5034397;28;20318;-91
2021/05/10 09:16:34;;;;;;;1.80;1.27;;;8.00;99.90;;;;;;5034018;28;20667;-88
2021/05/10 09:19:05;;;;;;;1.60;1.17;;;8.00;99.90;;;;;;5034438;28;20235;-90
2021/05/10 09:21:34;;;;;;;4.70;1.40;;;8.00;99.90;;;;;;5033716;28;20215;-89
2021/05/10 09:24:21;;;;;;;1.50;1.27;;;7.90;99.90;;;;;;5037389;28;20211;-89
2021/05/10 09:27:25;;;;;;;1.97;1.40;;;7.90;99.90;;;;;;5038265;28;20219;-89
2021/05/10 09:30:16;;;;;;;2.73;1.40;;;7.90;99.90;;;;;;5037475;28;20215;-90
2021/05/10 09:32:54;;;;;;;1.90;1.23;;;7.90;99.90;;;;;;5038032;28;20220;-90
2021/05/10 09:35:26;;;;;;;2.33;1.70;;;7.90;99.90;;;;;;5037926;28;20289;-89
2021/05/10 09:38:01;;;;;;;1.80;1.20;;;7.90;99.90;;;;;;5037884;28;20212;-89
2021/05/10 09:40:47;;;;;;;4.63;1.70;;;7.90;99.90;;;;;;5037858;28;20211;-88
2021/05/10 09:43:19;;;;;;;4.00;1.30;;;7.90;99.90;;;;;;5037784;28;20234;-89
2021/05/10 09:45:51;;;;;;;2.93;1.67;;;7.80;99.90;;;;;;5039068;28;20235;-89
2021/05/10 09:48:27;;;;;;;1.83;1.60;;;7.80;99.90;;;;;;5038522;28;20296;-89
2021/05/10 09:51:01;;;;;;;1.90;1.53;;;7.80;99.90;;;;;;5037190;28;20210;-89
2021/05/10 09:53:39;;;;;;;5.30;2.13;;;7.70;99.90;;;;;;5020879;28;20267;-89
2021/05/10 09:56:12;;;;;;;2.80;1.50;;;7.70;99.90;;;;;;5037727;28;20322;-90
2021/05/10 09:58:45;;;;;;;1.90;1.30;;;7.70;99.90;;;;;;5038107;28;20209;-89
2021/05/10 10:01:23;;;;;;;2.17;1.50;;;7.60;99.90;;;;;;5037216;28;20695;-88
2021/05/10 10:04:01;;;;;;;1.83;1.60;;;7.50;99.90;;;;;;5037685;28;20205;-89
2021/05/10 10:06:32;;;;;;;2.30;1.30;;;7.50;99.90;;;;;;5021032;28;20210;-89
2021/05/10 10:09:03;;;;;;;2.40;1.50;;;7.50;99.90;;;;;;5038002;28;20227;-90
2021/05/10 10:11:34;;;;;;;3.00;1.40;;;7.40;99.90;;;;;;5036827;28;20744;-89
2021/05/10 10:14:05;;;;;;;2.23;1.50;;;7.50;99.90;;;;;;5020765;28;20209;-89
2021/05/10 10:16:38;;;;;;;2.40;1.77;;;7.40;99.90;;;;;;5037276;28;20604;-90
2021/05/10 10:19:10;;;;;;;1.90;1.50;;;7.40;99.90;;;;;;5037475;28;20214;-90
2021/05/10 10:21:44;;;;;;;2.37;1.37;;;7.50;99.90;;;;;;5036147;28;20212;-89
2021/05/10 10:24:17;;;;;;;2.03;1.63;;;7.50;99.90;;;;;;5038580;28;20237;-89
2021/05/10 10:27:08;;;;;;;2.30;1.53;;;7.60;99.90;;;;;;5038075;28;20217;-89
2021/05/10 10:29:41;;;;;;;4.70;1.57;;;7.50;99.90;;;;;;5038577;28;20213;-89
2021/05/10 10:32:17;;;;;;;2.50;1.90;;;7.50;99.90;;;;;;5038419;28;20265;-89
2021/05/10 10:34:49;;;;;;;3.97;2.00;;;7.40;99.90;;;;;;5038714;28;20211;-90
2021/05/10 10:37:20;;;;;;;3.00;1.80;;;7.40;99.90;;;;;;5038638;28;20621;-89
2021/05/10 10:39:56;;;;;;;3.00;1.87;;;7.40;99.90;;;;;;5049020;28;20212;-89
2021/05/10 10:42:30;;;;;;;1.93;1.57;;;7.40;99.90;;;;;;5050218;28;20575;-89
2021/05/10 10:45:03;;;;;;;7.73;1.60;;;7.30;99.90;;;;;;5045284;28;20212;-89
2021/05/10 10:47:47;;;;;;;3.50;1.80;;;7.30;99.90;;;;;;5037510;28;20203;-89
2021/05/10 10:50:19;;;;;;;2.67;2.10;;;7.20;99.90;;;;;;5036184;28;20212;-89
2021/05/10 10:52:55;;;;;;;2.83;2.13;;;7.10;99.90;;;;;;5036784;28;20277;-89
2021/05/10 10:55:27;;;;;;;2.07;1.80;;;7.20;99.90;;;;;;5036404;28;20771;-89
2021/05/10 10:58:21;;;;;;;3.00;1.90;;;7.30;99.90;;;;;;5036204;28;20270;-89
2021/05/10 11:01:05;;;;;;;2.47;1.73;;;7.30;99.90;;;;;;5035375;28;20243;-87
2021/05/10 11:03:38;;;;;;;6.53;2.00;;;7.30;99.90;;;;;;5036798;28;20614;-88
2021/05/10 11:06:09;;;;;;;5.97;2.13;;;7.30;99.90;;;;;;5036587;28;20218;-89
2021/05/10 11:08:51;;;;;;;4.20;2.03;;;7.30;99.90;;;;;;5036409;28;20210;-89
2021/05/10 11:11:41;;;;;;;2.33;2.13;;;7.30;99.90;;;;;;5035887;28;20209;-89
2021/05/10 11:14:16;;;;;;;2.67;1.90;;;7.20;99.90;;;;;;5036742;28;20230;-89
2021/05/10 11:16:48;;;;;;;2.63;1.77;;;7.30;99.90;;;;;;5036117;28;20644;-89
2021/05/10 11:19:38;;;;;;;3.47;2.00;;;7.40;99.90;;;;;;5036569;28;20210;-89
2021/05/10 11:22:36;;;;;;;3.80;1.60;;;7.40;99.90;;;;;;5034851;28;20248;-90
2021/05/10 11:25:39;;;;;;;4.50;1.80;;;7.40;99.90;;;;;;5036399;28;20217;-89
2021/05/10 11:28:43;;;;;;;2.60;1.80;;;7.40;99.90;;;;;;5018616;28;20560;-89
2021/05/10 11:31:19;;;;;;;3.27;2.10;;;7.20;99.90;;;;;;5032032;28;20216;-89
2021/05/10 11:34:11;;;;;;;2.57;1.90;;;7.10;99.90;;;;;;5035992;28;20582;-89
2021/05/10 11:36:49;;;;;;;3.33;1.90;;;7.10;99.90;;;;;;5035430;28;20235;-89
2021/05/10 11:39:23;;;;;;;3.73;2.13;;;7.10;99.90;;;;;;5036058;28;20204;-89
2021/05/10 11:41:59;;;;;;;2.33;1.87;;;7.20;99.90;;;;;;5034802;28;20202;-89
2021/05/10 11:44:33;;;;;;;3.60;1.90;;;7.20;99.90;;;;;;5035618;28;20209;-88
2021/05/10 11:47:05;;;;;;;2.17;1.83;;;7.20;99.90;;;;;;5036860;28;20212;-89
2021/05/10 11:49:37;;;;;;;2.77;2.10;;;7.20;99.90;;;;;;5035393;28;20342;-89
2021/05/10 11:52:11;;;;;;;6.37;2.63;;;7.20;99.90;;;;;;5035507;28;20323;-89
2021/05/10 11:54:43;;;;;;;2.70;2.13;;;7.20;99.90;;;;;;5018523;28;20568;-89
2021/05/10 11:57:15;;;;;;;4.17;2.13;;;7.10;99.90;;;;;;5035617;28;20278;-89
2021/05/10 11:59:47;;;;;;;2.80;1.67;;;7.10;99.90;;;;;;5035384;28;20251;-89
2021/05/10 12:02:21;;;;;;;5.87;2.10;;;7.10;99.90;;;;;;5034206;28;20210;-89
2021/05/10 12:04:54;;;;;;;3.53;2.10;;;7.00;99.90;;;;;;5036040;28;20206;-89
2021/05/10 12:07:28;;;;;;;3.03;2.70;;;6.90;99.90;;;;;;5018425;28;20206;-89
2021/05/10 12:10:01;;;;;;;3.30;3.00;;;6.80;99.90;;;;;;5035185;28;20255;-90
2021/05/10 12:12:34;;;;;;;4.97;2.97;;;6.90;99.90;;;;;;5035547;28;20560;-90
2021/05/10 12:15:14;;;;;;;3.17;2.60;;;6.90;99.90;;;;;;5035370;28;20209;-89
2021/05/10 12:17:50;;;;;;;3.70;2.40;;;6.90;99.90;;;;;;5035693;28;20262;-89
2021/05/10 12:20:23;;;;;;;2.50;2.10;;;6.80;99.90;;;;;;5034547;28;20209;-89
2021/05/10 12:22:57;;;;;;;2.47;2.10;;;6.80;99.90;;;;;;5035397;28;20317;-89
2021/05/10 12:25:29;;;;;;;3.83;2.50;;;6.80;99.90;;;;;;5034780;28;20238;-90
2021/05/10 12:28:03;;;;;;;5.57;1.90;;;6.80;99.90;;;;;;5035246;28;20262;-89
2021/05/10 12:30:35;;;;;;;4.10;2.43;;;6.70;99.90;;;;;;5034900;28;20219;-89
2021/05/10 12:33:11;;;;;;;2.30;1.67;;;6.70;99.90;;;;;;5017593;28;20231;-89
2021/05/10 12:35:44;;;;;;;2.40;2.17;;;6.70;99.90;;;;;;5034846;28;20255;-89
2021/05/10 12:38:26;;;;;;;3.13;2.27;;;6.70;99.90;;;;;;5035206;28;20236;-89
2021/05/10 12:40:57;;;;;;;3.73;2.03;;;6.70;99.90;;;;;;5034618;28;20236;-89
2021/05/10 12:43:29;;;;;;;3.20;2.00;;;6.60;99.90;;;;;;5035278;28;20258;-89
2021/05/10 12:46:04;;;;;;;2.70;1.97;;;6.70;99.90;;;;;;5035240;28;20259;-89
2021/05/10 12:48:39;;;;;;;5.33;2.00;;;6.60;99.90;;;;;;5035934;28;20205;-89
2021/05/10 12:51:11;;;;;;;2.27;1.90;;;6.60;99.90;;;;;;5035191;28;20211;-89
2021/05/10 12:53:45;;;;;;;2.77;2.20;;;6.70;99.90;;;;;;5038434;28;20236;-89
2021/05/10 12:56:17;;;;;;;4.30;2.07;;;6.70;99.90;;;;;;5047384;28;20237;-89
2021/05/10 12:58:49;;;;;;;3.60;2.27;;;6.60;99.90;;;;;;5058516;28;20239;-89
2021/05/10 13:01:21;;;;;;;2.33;2.13;;;6.60;99.90;;;;;;5041594;28;20247;-89
2021/05/10 13:04:01;;;;;;;4.43;2.07;;;6.60;99.90;;;;;;5018608;28;20213;-89
2021/05/10 13:06:33;;;;;;;2.53;2.20;;;6.60;99.90;;;;;;5036210;28;20207;-89
2021/05/10 13:09:07;;;;;;;5.07;1.83;;;6.70;99.90;;;;;;5036718;28;20720;-89
2021/05/10 13:11:40;;;;;;;3.13;2.03;;;6.70;99.90;;;;;;5035326;28;20700;-89
2021/05/10 13:14:22;;;;;;;3.33;1.80;;;6.70;99.90;;;;;;5035352;28;20235;-89
2021/05/10 13:17:06;;;;;;;2.77;1.73;;;6.70;99.90;;;;;;5035040;28;20225;-90
2021/05/10 13:31:29;;;;;;;4.77;2.10;;;6.80;99.90;;;;;;5043863;28;20296;-89
2021/05/10 13:34:18;;;;;;;2.30;2.00;;;6.80;99.90;;;;;;5047470;28;20220;-89
2021/05/10 13:36:50;;;;;;;3.13;2.00;;;6.80;99.90;;;;;;5050145;28;20248;-89
2021/05/10 13:39:22;;;;;;;3.03;1.87;;;6.70;99.90;;;;;;5055621;28;20201;-89
2021/05/10 13:41:57;;;;;;;2.30;1.80;;;6.70;99.90;;;;;;5053733;28;20205;-89